Time;durP1;ratioP1;P1;durP2;ratioP2;P2;SDS_P1;SDS_P2;PMS_P1;PMS_P2;Temp;Humidity;BMP_temperature;BMP_pressure;BME280_temperature;BME280_humidity;BME280_pressure;Samples;Min_cycle;Max_cycle;Signal;HPM_P1;HPM_P2
2023/01/28 00:01:41;;;;;;;0.70;0.60;;;3.20;99.90;;;;;;5048827;28;20284;-63
2023/01/28 00:04:10;;;;;;;0.70;0.50;;;3.10;99.90;;;;;;5052352;28;20198;-64
2023/01/28 00:06:38;;;;;;;0.70;0.60;;;3.10;99.90;;;;;;5050684;28;20219;-64
2023/01/28 00:09:06;;;;;;;0.70;0.60;;;3.10;99.90;;;;;;5051534;28;20273;-64
2023/01/28 00:11:34;;;;;;;0.60;0.60;;;3.00;99.90;;;;;;5049222;28;20212;-63
2023/01/28 00:14:04;;;;;;;1.13;0.77;;;3.00;99.90;;;;;;5048121;28;20196;-63
2023/01/28 00:16:32;;;;;;;0.80;0.60;;;2.90;99.90;;;;;;5051996;28;20314;-63
2023/01/28 00:19:00;;;;;;;0.85;0.60;;;2.90;99.90;;;;;;5050556;28;20960;-64
2023/01/28 00:21:29;;;;;;;0.70;0.50;;;2.80;99.90;;;;;;5049526;28;21735;-63
2023/01/28 00:23:57;;;;;;;0.70;0.70;;;2.80;99.90;;;;;;5052090;28;20284;-63
2023/01/28 00:26:25;;;;;;;0.95;0.70;;;2.80;99.90;;;;;;5052131;28;20838;-64
2023/01/28 00:28:53;;;;;;;0.90;0.80;;;2.70;99.90;;;;;;5050903;28;20206;-62
2023/01/28 00:31:23;;;;;;;0.90;0.57;;;2.70;99.90;;;;;;5048776;28;20260;-64
2023/01/28 00:33:53;;;;;;;1.83;0.80;;;2.70;99.90;;;;;;5047780;28;20684;-64
2023/01/28 00:36:22;;;;;;;0.82;0.82;;;2.60;99.90;;;;;;5051414;28;20220;-64
2023/01/28 00:38:52;;;;;;;0.90;0.55;;;2.60;99.90;;;;;;5046874;28;20291;-63
2023/01/28 00:41:22;;;;;;;0.70;0.60;;;2.60;99.90;;;;;;5051084;28;20726;-64
2023/01/28 00:43:51;;;;;;;1.27;0.60;;;2.70;99.90;;;;;;5049528;28;20285;-63
2023/01/28 00:46:20;;;;;;;1.40;0.68;;;2.70;99.90;;;;;;5049995;28;20308;-63
2023/01/28 00:48:48;;;;;;;0.70;0.57;;;2.80;99.90;;;;;;5050949;28;20229;-63
2023/01/28 00:51:18;;;;;;;1.13;0.63;;;2.70;99.90;;;;;;5050530;28;20281;-63
2023/01/28 00:53:47;;;;;;;0.80;0.60;;;2.70;99.90;;;;;;5051308;28;20201;-64
2023/01/28 00:56:18;;;;;;;0.88;0.60;;;2.70;99.90;;;;;;5051356;28;20666;-63
2023/01/28 00:58:47;;;;;;;0.60;0.47;;;2.70;99.90;;;;;;5049551;28;20759;-63
2023/01/28 01:01:17;;;;;;;0.65;0.60;;;2.90;99.90;;;;;;5047741;28;20287;-63
2023/01/28 01:03:45;;;;;;;0.60;0.40;;;3.00;99.90;;;;;;5050064;28;20207;-63
2023/01/28 01:06:16;;;;;;;0.70;0.60;;;2.90;99.90;;;;;;5047684;28;20258;-64
2023/01/28 01:08:48;;;;;;;0.60;0.50;;;2.90;99.90;;;;;;5043714;28;20231;-64
2023/01/28 01:11:19;;;;;;;0.80;0.50;;;2.90;99.90;;;;;;5048642;28;20196;-64
2023/01/28 01:13:51;;;;;;;0.60;0.57;;;3.10;99.90;;;;;;5051989;28;20257;-64
2023/01/28 01:16:19;;;;;;;0.63;0.55;;;3.20;99.90;;;;;;5050100;28;20212;-64
2023/01/28 01:18:46;;;;;;;0.77;0.60;;;3.10;99.90;;;;;;5050062;28;20220;-63
2023/01/28 01:21:17;;;;;;;0.60;0.50;;;3.00;99.90;;;;;;5049141;28;20685;-64
2023/01/28 01:23:46;;;;;;;0.93;0.65;;;2.90;99.90;;;;;;5052650;28;20295;-64
2023/01/28 01:26:15;;;;;;;0.63;0.55;;;2.80;99.90;;;;;;5050471;28;20601;-63
2023/01/28 01:28:45;;;;;;;0.70;0.70;;;2.80;99.90;;;;;;5048863;28;20206;-63
2023/01/28 01:31:15;;;;;;;0.75;0.63;;;2.80;99.90;;;;;;5049688;28;20283;-61
2023/01/28 01:33:44;;;;;;;0.60;0.50;;;2.90;99.90;;;;;;5050105;28;20200;-63
2023/01/28 01:36:13;;;;;;;0.60;0.60;;;2.90;99.90;;;;;;5050133;28;20669;-63
2023/01/28 01:38:41;;;;;;;1.13;0.55;;;3.00;99.90;;;;;;5049631;28;20230;-63
2023/01/28 01:41:13;;;;;;;0.60;0.60;;;2.90;99.90;;;;;;5050905;28;20283;-63
2023/01/28 01:43:51;;;;;;;0.90;0.50;;;3.00;99.90;;;;;;5047041;28;20211;-63
2023/01/28 01:46:23;;;;;;;0.60;0.50;;;2.90;99.90;;;;;;5050924;28;20224;-63
2023/01/28 01:48:53;;;;;;;0.60;0.50;;;3.00;99.90;;;;;;5092129;22;20652;-64
2023/01/28 01:51:26;;;;;;;0.60;0.50;;;3.00;99.90;;;;;;5068120;28;20210;-64
2023/01/28 01:53:56;;;;;;;0.60;0.43;;;3.00;99.90;;;;;;5066799;28;20274;-63
2023/01/28 01:56:28;;;;;;;0.60;0.50;;;3.00;99.90;;;;;;5070202;28;20280;-64
2023/01/28 01:58:58;;;;;;;0.90;0.60;;;3.00;99.90;;;;;;5068214;28;20243;-65
2023/01/28 02:01:30;;;;;;;0.90;0.60;;;3.20;99.90;;;;;;5067043;28;20280;-64
2023/01/28 02:04:04;;;;;;;0.60;0.50;;;3.20;99.90;;;;;;5060437;28;20234;-64
2023/01/28 02:06:33;;;;;;;0.80;0.68;;;3.10;99.90;;;;;;5069682;28;20253;-64
2023/01/28 02:09:02;;;;;;;0.60;0.57;;;3.00;99.90;;;;;;5064516;28;20239;-64
2023/01/28 02:11:33;;;;;;;1.23;0.70;;;3.10;99.90;;;;;;5068209;28;20261;-63
2023/01/28 02:14:04;;;;;;;0.80;0.65;;;3.00;99.90;;;;;;5069050;28;20810;-64
2023/01/28 02:16:33;;;;;;;1.10;0.80;;;2.90;99.90;;;;;;5069918;28;20666;-64
2023/01/28 02:19:01;;;;;;;1.60;0.93;;;2.90;99.90;;;;;;5069868;28;20208;-64
2023/01/28 02:22:03;;;;;;;1.48;0.73;;;2.90;99.90;;;;;;5067716;28;20278;-64
2023/01/28 02:25:06;;;;;;;0.80;0.80;;;2.90;99.90;;;;;;5069208;28;20199;-64
2023/01/28 02:27:39;;;;;;;0.80;0.70;;;3.10;99.90;;;;;;5070509;28;20282;-64
2023/01/28 02:30:14;;;;;;;0.60;0.60;;;3.30;99.90;;;;;;5063818;28;20200;-64
2023/01/28 02:32:46;;;;;;;0.90;0.63;;;3.10;99.90;;;;;;5068831;28;20209;-64
2023/01/28 02:35:20;;;;;;;0.80;0.80;;;3.10;99.90;;;;;;5068579;28;20201;-64
2023/01/28 02:37:54;;;;;;;0.60;0.50;;;3.00;99.90;;;;;;5070015;28;20241;-65
2023/01/28 02:40:28;;;;;;;0.95;0.73;;;2.90;99.90;;;;;;5070071;28;20675;-65
2023/01/28 02:42:56;;;;;;;0.80;0.60;;;2.90;99.90;;;;;;5070433;28;20258;-64
2023/01/28 02:47:56;;;;;;;0.70;0.63;;;2.90;99.90;;;;;;5068202;28;20222;-65
2023/01/28 02:48:17;;;;;;;0.50;0.40;;;2.90;99.90;;;;;;5064545;28;20854;-65
2023/01/28 02:50:52;;;;;;;0.70;0.52;;;2.90;99.90;;;;;;5065966;28;20235;-64
2023/01/28 02:53:43;;;;;;;0.80;0.65;;;3.00;99.90;;;;;;5067956;28;20275;-64
2023/01/28 02:56:19;;;;;;;1.65;0.80;;;3.00;99.90;;;;;;5066885;28;20211;-64
2023/01/28 02:58:54;;;;;;;1.00;0.85;;;3.00;99.90;;;;;;5062631;28;20639;-64
2023/01/28 03:01:28;;;;;;;0.60;0.50;;;3.20;99.90;;;;;;5069747;28;20677;-64
2023/01/28 03:03:59;;;;;;;0.90;0.63;;;3.40;99.90;;;;;;5066363;28;20229;-64
2023/01/28 03:06:34;;;;;;;2.25;0.70;;;3.30;99.90;;;;;;5068881;28;20286;-64
2023/01/28 03:09:23;;;;;;;0.70;0.60;;;3.30;99.90;;;;;;5064343;28;20302;-64
2023/01/28 03:37:07;;;;;;;0.65;0.57;;;3.40;99.90;;;;;;5070104;28;20631;-64
2023/01/28 03:39:35;;;;;;;0.60;0.45;;;3.30;99.90;;;;;;5065953;28;20679;-63
2023/01/28 03:42:06;;;;;;;0.60;0.50;;;3.30;99.90;;;;;;5060775;28;20225;-64
2023/01/28 03:44:50;;;;;;;0.70;0.60;;;3.30;99.90;;;;;;5069097;28;20250;-64
2023/01/28 03:47:19;;;;;;;0.60;0.50;;;3.20;99.90;;;;;;5068121;28;20243;-64
2023/01/28 03:49:51;;;;;;;0.70;0.60;;;3.20;99.90;;;;;;5067759;28;20207;-64
2023/01/28 03:52:21;;;;;;;0.90;0.52;;;3.40;99.90;;;;;;5068869;28;20223;-64
2023/01/28 03:54:50;;;;;;;0.60;0.50;;;3.40;99.90;;;;;;5068043;28;20231;-64
2023/01/28 03:57:20;;;;;;;0.70;0.60;;;3.20;99.90;;;;;;5070766;28;20250;-64
2023/01/28 03:59:49;;;;;;;0.70;0.60;;;3.20;99.90;;;;;;5065920;28;20221;-64
2023/01/28 04:02:17;;;;;;;0.60;0.50;;;3.20;99.90;;;;;;5061278;28;20196;-65
2023/01/28 04:04:45;;;;;;;0.80;0.70;;;3.40;99.90;;;;;;5065079;28;20208;-64
2023/01/28 04:07:15;;;;;;;0.77;0.60;;;3.50;99.90;;;;;;5068824;28;20302;-65
2023/01/28 04:09:43;;;;;;;0.60;0.50;;;3.40;99.90;;;;;;5067102;28;20692;-64
2023/01/28 04:12:11;;;;;;;0.70;0.70;;;3.30;99.90;;;;;;5069098;28;20245;-65
2023/01/28 04:14:39;;;;;;;0.80;0.80;;;3.20;99.90;;;;;;5060993;28;20227;-64
2023/01/28 04:17:09;;;;;;;1.33;0.80;;;3.00;99.90;;;;;;5066035;28;20283;-64
2023/01/28 04:19:37;;;;;;;0.60;0.57;;;3.20;99.90;;;;;;5064291;28;20216;-65
2023/01/28 04:22:06;;;;;;;0.60;0.50;;;3.20;99.90;;;;;;5068279;28;20234;-65
2023/01/28 04:24:35;;;;;;;0.90;0.63;;;3.30;99.90;;;;;;5067638;28;20223;-65
2023/01/28 04:27:03;;;;;;;1.98;0.60;;;3.30;99.90;;;;;;5070513;28;20672;-65
2023/01/28 04:29:31;;;;;;;0.63;0.63;;;3.40;99.90;;;;;;5068968;28;20309;-64
2023/01/28 04:31:59;;;;;;;0.75;0.50;;;3.50;99.90;;;;;;5068508;28;20199;-64
2023/01/28 04:34:27;;;;;;;0.60;0.60;;;3.40;99.90;;;;;;5065402;28;20200;-64
2023/01/28 04:36:55;;;;;;;0.68;0.45;;;3.20;99.90;;;;;;5069609;28;20291;-63
2023/01/28 04:39:22;;;;;;;0.93;0.73;;;3.40;99.90;;;;;;5067845;28;20237;-64
2023/01/28 04:41:52;;;;;;;1.20;0.88;;;3.30;99.90;;;;;;5068923;28;20337;-63
2023/01/28 04:44:19;;;;;;;0.70;0.50;;;3.40;99.90;;;;;;5068251;28;20306;-64
2023/01/28 04:46:47;;;;;;;0.55;0.43;;;3.40;99.90;;;;;;5069093;28;20233;-65
2023/01/28 04:49:15;;;;;;;0.50;0.40;;;3.30;99.90;;;;;;5069280;28;20753;-64
2023/01/28 04:51:43;;;;;;;0.82;0.50;;;3.40;99.90;;;;;;5068462;28;20425;-64
2023/01/28 04:54:11;;;;;;;0.50;0.40;;;3.60;99.90;;;;;;5067597;28;20199;-65
2023/01/28 04:56:38;;;;;;;0.73;0.60;;;3.60;99.90;;;;;;5072676;28;20743;-64
2023/01/28 04:59:08;;;;;;;0.77;0.60;;;3.60;99.90;;;;;;5072998;28;20310;-64
2023/01/28 05:01:36;;;;;;;0.50;0.50;;;3.60;99.90;;;;;;5070111;28;20208;-64
2023/01/28 05:04:05;;;;;;;0.60;0.57;;;3.60;99.90;;;;;;5065932;28;20259;-64
2023/01/28 05:06:33;;;;;;;0.70;0.60;;;3.80;99.90;;;;;;5073561;28;20200;-64
2023/01/28 05:09:01;;;;;;;0.50;0.40;;;3.60;99.90;;;;;;5068062;28;20241;-64
2023/01/28 05:11:29;;;;;;;0.70;0.50;;;3.40;99.90;;;;;;5070848;28;20199;-64
2023/01/28 05:13:56;;;;;;;0.60;0.52;;;3.40;99.90;;;;;;5071684;28;20235;-65
2023/01/28 05:16:26;;;;;;;0.70;0.60;;;3.40;99.90;;;;;;5072681;28;20727;-65
2023/01/28 05:18:53;;;;;;;0.80;0.68;;;3.30;99.90;;;;;;5072434;28;20613;-64
2023/01/28 05:21:21;;;;;;;0.60;0.52;;;3.20;99.90;;;;;;5071555;28;20248;-63
2023/01/28 05:23:49;;;;;;;0.70;0.50;;;3.20;99.90;;;;;;5066173;28;20201;-63
2023/01/28 05:26:17;;;;;;;0.70;0.60;;;3.20;99.90;;;;;;5070144;28;20220;-65
2023/01/28 05:28:45;;;;;;;0.55;0.40;;;3.20;99.90;;;;;;5069747;28;20590;-64
2023/01/28 05:31:13;;;;;;;0.93;0.57;;;3.20;99.90;;;;;;5069733;28;20199;-64
2023/01/28 05:33:42;;;;;;;0.70;0.60;;;3.10;99.90;;;;;;5068117;28;20282;-65
2023/01/28 05:36:10;;;;;;;0.60;0.50;;;3.10;99.90;;;;;;5064872;28;21330;-64
2023/01/28 05:38:38;;;;;;;0.60;0.50;;;3.00;99.90;;;;;;5072353;28;20223;-64
2023/01/28 05:41:06;;;;;;;0.60;0.50;;;3.00;99.90;;;;;;5071110;28;20222;-65
2023/01/28 05:43:33;;;;;;;0.93;0.82;;;2.90;99.90;;;;;;5070983;28;20582;-65
2023/01/28 05:46:01;;;;;;;0.60;0.50;;;2.90;99.90;;;;;;5067063;28;20203;-64
2023/01/28 05:48:29;;;;;;;0.60;0.50;;;2.90;99.90;;;;;;5070543;28;20248;-64
2023/01/28 05:50:58;;;;;;;0.80;0.55;;;2.90;99.90;;;;;;5071016;28;20816;-65
2023/01/28 05:53:26;;;;;;;0.93;0.80;;;2.90;99.90;;;;;;5071043;28;20274;-65
2023/01/28 05:55:54;;;;;;;0.60;0.50;;;2.90;99.90;;;;;;5069701;28;20230;-65
2023/01/28 05:58:23;;;;;;;0.70;0.60;;;3.00;99.90;;;;;;5069648;28;20691;-65
2023/01/28 06:00:50;;;;;;;0.73;0.60;;;2.90;99.90;;;;;;5070054;28;20220;-65
2023/01/28 06:03:18;;;;;;;0.63;0.60;;;3.00;99.90;;;;;;5067248;28;20201;-65
2023/01/28 06:05:47;;;;;;;0.60;0.40;;;2.90;99.90;;;;;;5068617;28;20619;-65
2023/01/28 06:08:16;;;;;;;0.80;0.80;;;2.90;99.90;;;;;;5065293;28;20307;-65
2023/01/28 06:10:44;;;;;;;0.70;0.50;;;2.80;99.90;;;;;;5071050;28;20207;-65
2023/01/28 06:13:12;;;;;;;0.70;0.65;;;2.80;99.90;;;;;;5071755;28;20274;-65
2023/01/28 06:15:40;;;;;;;0.60;0.50;;;2.80;99.90;;;;;;5068319;28;20704;-65
2023/01/28 06:18:08;;;;;;;0.70;0.68;;;2.70;99.90;;;;;;5068749;28;20302;-65
2023/01/28 06:20:36;;;;;;;0.60;0.50;;;2.70;99.90;;;;;;5070175;28;20211;-65
2023/01/28 06:23:03;;;;;;;0.60;0.50;;;2.80;99.90;;;;;;5067616;28;20214;-65
2023/01/28 06:25:32;;;;;;;0.60;0.50;;;2.80;99.90;;;;;;5065798;28;20334;-65
2023/01/28 06:28:00;;;;;;;0.75;0.65;;;2.80;99.90;;;;;;5066115;28;20219;-65
2023/01/28 06:30:28;;;;;;;0.60;0.50;;;2.90;99.90;;;;;;5066129;28;20187;-65
2023/01/28 06:32:56;;;;;;;0.90;0.60;;;2.90;99.90;;;;;;5066799;28;20270;-66
2023/01/28 06:35:24;;;;;;;0.60;0.57;;;3.10;99.90;;;;;;5067049;28;20679;-64
2023/01/28 06:37:52;;;;;;;0.60;0.60;;;3.00;99.90;;;;;;5086822;28;20654;-64
2023/01/28 06:40:21;;;;;;;0.70;0.60;;;3.00;99.90;;;;;;5070195;28;20312;-64
2023/01/28 06:42:50;;;;;;;0.70;0.55;;;3.00;99.90;;;;;;5071465;28;20258;-64
2023/01/28 06:45:18;;;;;;;0.80;0.80;;;2.80;99.90;;;;;;5070754;28;20224;-65
2023/01/28 06:47:46;;;;;;;0.80;0.70;;;2.90;99.90;;;;;;5070417;28;20245;-65
2023/01/28 06:50:14;;;;;;;1.00;0.70;;;2.70;99.90;;;;;;5065404;28;20197;-65
2023/01/28 06:52:43;;;;;;;0.60;0.55;;;2.70;99.90;;;;;;5065813;28;20211;-64
2023/01/28 06:55:11;;;;;;;0.75;0.75;;;2.80;99.90;;;;;;5064522;28;20286;-63
2023/01/28 06:57:39;;;;;;;0.60;0.40;;;2.80;99.90;;;;;;5063488;28;20746;-64
2023/01/28 07:00:12;;;;;;;1.20;1.00;;;2.80;99.90;;;;;;5077487;28;20291;-64
2023/01/28 07:02:40;;;;;;;1.00;1.00;;;2.80;99.90;;;;;;5075718;28;20198;-64
2023/01/28 07:05:09;;;;;;;0.93;0.77;;;2.70;99.90;;;;;;5062125;28;20262;-63
2023/01/28 07:07:37;;;;;;;0.80;0.60;;;2.80;99.90;;;;;;5066299;28;20225;-64
2023/01/28 07:10:09;;;;;;;1.15;1.05;;;2.80;99.90;;;;;;5051151;28;20239;-64
2023/01/28 07:12:37;;;;;;;0.82;0.63;;;2.80;99.90;;;;;;5076139;28;20223;-63
2023/01/28 07:15:06;;;;;;;0.70;0.60;;;2.80;99.90;;;;;;5091616;28;20240;-63
2023/01/28 07:17:35;;;;;;;0.70;0.65;;;2.80;99.90;;;;;;5071239;28;20255;-64
2023/01/28 07:20:05;;;;;;;0.60;0.55;;;2.80;99.90;;;;;;5051803;28;20773;-64
2023/01/28 07:22:32;;;;;;;0.60;0.50;;;2.80;99.90;;;;;;5051634;28;20200;-63
2023/01/28 07:25:00;;;;;;;0.70;0.60;;;2.70;99.90;;;;;;5051026;28;20295;-64
2023/01/28 07:27:29;;;;;;;0.77;0.75;;;2.70;99.90;;;;;;5051639;28;20315;-64
2023/01/28 07:29:57;;;;;;;0.95;0.70;;;2.90;99.90;;;;;;5050879;28;20201;-63
2023/01/28 07:32:26;;;;;;;0.75;0.70;;;3.00;99.90;;;;;;5053008;28;20827;-64
2023/01/28 07:34:55;;;;;;;0.85;0.73;;;3.00;99.90;;;;;;5067303;28;20203;-64
2023/01/28 07:37:23;;;;;;;1.00;0.77;;;3.10;99.90;;;;;;5070911;28;20703;-65
2023/01/28 07:39:51;;;;;;;0.93;0.82;;;3.10;99.90;;;;;;5070305;28;20221;-65
2023/01/28 07:42:19;;;;;;;1.25;0.60;;;3.20;99.90;;;;;;5066198;28;20296;-65
2023/01/28 07:44:47;;;;;;;0.98;0.68;;;3.00;99.90;;;;;;5063239;28;20205;-65
2023/01/28 07:47:15;;;;;;;1.10;0.77;;;2.90;99.90;;;;;;5062479;28;20235;-65
2023/01/28 07:49:43;;;;;;;0.70;0.50;;;2.80;99.90;;;;;;5047974;22;20632;-65
2023/01/28 07:52:12;;;;;;;1.02;0.75;;;2.70;99.90;;;;;;5010247;28;20282;-63
2023/01/28 07:54:40;;;;;;;0.95;0.60;;;2.70;99.90;;;;;;5005761;28;20309;-64
2023/01/28 07:57:09;;;;;;;0.60;0.50;;;2.70;99.90;;;;;;5009134;28;20688;-63
2023/01/28 07:59:37;;;;;;;1.17;0.75;;;2.70;99.90;;;;;;5005604;28;20643;-63
2023/01/28 08:02:05;;;;;;;1.00;0.65;;;2.70;99.90;;;;;;5007106;28;20228;-63
2023/01/28 08:04:33;;;;;;;0.70;0.60;;;2.70;99.90;;;;;;5001466;28;20229;-63
2023/01/28 08:07:03;;;;;;;0.80;0.70;;;2.60;99.90;;;;;;5010315;28;20211;-63
2023/01/28 08:09:33;;;;;;;0.80;0.60;;;2.60;99.90;;;;;;5015843;28;20353;-61
2023/01/28 08:12:03;;;;;;;1.05;0.70;;;2.60;99.90;;;;;;5009816;28;20596;-63
2023/01/28 08:14:31;;;;;;;0.50;0.40;;;2.60;99.90;;;;;;5002297;28;20229;-63
2023/01/28 08:16:58;;;;;;;2.00;0.63;;;2.70;99.90;;;;;;5010245;28;20301;-64
2023/01/28 08:19:26;;;;;;;2.38;0.65;;;2.60;99.90;;;;;;5008458;28;20229;-62
2023/01/28 08:21:54;;;;;;;0.70;0.60;;;2.70;99.90;;;;;;5000861;28;20226;-62
2023/01/28 08:24:22;;;;;;;0.70;0.60;;;2.70;99.90;;;;;;4997646;28;20200;-63
2023/01/28 08:26:51;;;;;;;0.75;0.65;;;2.70;99.90;;;;;;5009847;28;20271;-62
2023/01/28 08:29:19;;;;;;;1.65;0.70;;;2.70;99.90;;;;;;5007746;28;20243;-62
2023/01/28 08:31:47;;;;;;;0.98;0.77;;;2.80;99.90;;;;;;5010905;28;20276;-63
2023/01/28 08:34:15;;;;;;;0.80;0.60;;;2.80;99.90;;;;;;5008799;28;20212;-63
2023/01/28 08:36:43;;;;;;;0.80;0.80;;;2.80;99.90;;;;;;5010416;28;20581;-63
2023/01/28 08:39:11;;;;;;;0.73;0.68;;;2.80;99.90;;;;;;5009448;28;20639;-63
2023/01/28 08:41:39;;;;;;;1.00;1.00;;;2.80;99.90;;;;;;5009160;28;20232;-63
2023/01/28 08:44:08;;;;;;;0.80;0.60;;;2.90;99.90;;;;;;5009704;28;20288;-62
2023/01/28 08:46:36;;;;;;;0.70;0.60;;;2.90;99.90;;;;;;5008824;28;20217;-63
2023/01/28 08:49:03;;;;;;;1.00;0.90;;;2.90;99.90;;;;;;5017404;28;20247;-65
2023/01/28 08:51:31;;;;;;;0.60;0.47;;;2.90;99.90;;;;;;5028310;28;20277;-64
2023/01/28 08:53:59;;;;;;;0.90;0.70;;;2.80;99.90;;;;;;5026458;28;20622;-64
2023/01/28 08:56:27;;;;;;;0.80;0.75;;;2.80;99.90;;;;;;5025986;28;20284;-63
2023/01/28 08:58:55;;;;;;;0.60;0.52;;;2.80;99.90;;;;;;5029116;28;20906;-63
2023/01/28 09:01:25;;;;;;;0.60;0.50;;;2.80;99.90;;;;;;5027506;28;20605;-64
2023/01/28 09:03:52;;;;;;;0.70;0.55;;;2.80;99.90;;;;;;5025789;28;20312;-63
2023/01/28 09:06:20;;;;;;;0.80;0.50;;;2.80;99.90;;;;;;5030204;28;20259;-63
2023/01/28 09:08:48;;;;;;;0.70;0.70;;;2.70;99.90;;;;;;5026985;28;20220;-63
2023/01/28 09:11:16;;;;;;;0.70;0.60;;;2.80;99.90;;;;;;5027880;28;20569;-65
2023/01/28 09:13:44;;;;;;;0.80;0.70;;;2.70;99.90;;;;;;5026519;28;20288;-63
2023/01/28 09:16:12;;;;;;;0.73;0.55;;;2.70;99.90;;;;;;5032582;28;20194;-63
2023/01/28 09:18:41;;;;;;;0.70;0.70;;;2.70;99.90;;;;;;5034781;28;20279;-63
2023/01/28 09:21:09;;;;;;;0.60;0.50;;;2.70;99.90;;;;;;5031403;28;20634;-63
2023/01/28 09:23:38;;;;;;;0.98;0.85;;;2.70;99.90;;;;;;5033551;28;20789;-64
2023/01/28 09:26:06;;;;;;;1.00;0.50;;;2.70;99.90;;;;;;5033443;28;20203;-64
2023/01/28 09:28:34;;;;;;;1.05;0.95;;;2.70;99.90;;;;;;5033728;28;20231;-64
2023/01/28 09:31:03;;;;;;;2.15;1.15;;;2.70;99.90;;;;;;5033271;28;20196;-64
2023/01/28 09:33:32;;;;;;;0.90;0.70;;;2.80;99.90;;;;;;5033526;28;20201;-63
2023/01/28 09:36:03;;;;;;;0.82;0.63;;;2.80;99.90;;;;;;5027382;28;20660;-64
2023/01/28 09:38:33;;;;;;;0.82;0.60;;;2.80;99.90;;;;;;5032590;28;20213;-63
2023/01/28 09:41:08;;;;;;;0.70;0.60;;;2.80;99.90;;;;;;5032563;28;20209;-63
2023/01/28 09:43:50;;;;;;;1.55;1.05;;;2.80;99.90;;;;;;5033360;28;20220;-64
2023/01/28 09:46:18;;;;;;;1.05;0.77;;;2.80;99.90;;;;;;5033476;28;20225;-64
2023/01/28 09:48:48;;;;;;;0.60;0.50;;;2.90;99.90;;;;;;5027807;28;20236;-64
2023/01/28 09:51:40;;;;;;;0.73;0.60;;;2.90;99.90;;;;;;5011562;28;20212;-64
2023/01/28 09:54:26;;;;;;;1.25;0.90;;;2.80;99.90;;;;;;5013508;28;20202;-63
2023/01/28 09:57:04;;;;;;;0.70;0.65;;;2.90;99.90;;;;;;5013314;28;20279;-63
2023/01/28 09:59:35;;;;;;;0.93;0.80;;;2.90;99.90;;;;;;5012792;28;20213;-63
2023/01/28 10:02:22;;;;;;;0.95;0.85;;;2.90;99.90;;;;;;5012969;28;20313;-63
2023/01/28 10:04:59;;;;;;;0.70;0.60;;;2.90;99.90;;;;;;5012960;28;20274;-64
2023/01/28 10:07:37;;;;;;;0.70;0.63;;;2.80;99.90;;;;;;5012440;28;20729;-63
2023/01/28 10:10:12;;;;;;;1.02;0.88;;;2.80;99.90;;;;;;5012365;28;20547;-63
2023/01/28 10:12:58;;;;;;;1.05;0.55;;;2.80;99.90;;;;;;5012830;28;20624;-63
2023/01/28 10:15:47;;;;;;;1.30;0.75;;;2.80;99.90;;;;;;5013141;28;20288;-64
2023/01/28 10:18:15;;;;;;;0.60;0.50;;;2.80;99.90;;;;;;5012578;28;20561;-63
2023/01/28 10:20:49;;;;;;;0.65;0.55;;;2.80;99.90;;;;;;5012050;28;20191;-64
2023/01/28 10:23:24;;;;;;;0.60;0.50;;;2.80;99.90;;;;;;5012264;28;20225;-63
2023/01/28 10:25:55;;;;;;;0.95;0.95;;;2.80;99.90;;;;;;5012740;28;20308;-63
2023/01/28 10:28:26;;;;;;;0.70;0.60;;;2.80;99.90;;;;;;5012693;28;20194;-63
2023/01/28 10:30:54;;;;;;;0.68;0.43;;;2.80;99.90;;;;;;5011598;28;20190;-63
2023/01/28 10:33:28;;;;;;;0.88;0.85;;;2.80;99.90;;;;;;5012489;28;20219;-63
2023/01/28 10:35:56;;;;;;;1.02;0.70;;;2.80;99.90;;;;;;5012274;28;20201;-63
2023/01/28 10:38:27;;;;;;;0.75;0.50;;;2.90;99.90;;;;;;5011920;28;20638;-64
2023/01/28 10:40:59;;;;;;;0.77;0.75;;;2.90;99.90;;;;;;5011658;28;20731;-64
2023/01/28 10:43:32;;;;;;;0.70;0.60;;;2.90;99.90;;;;;;5012335;28;20243;-64
2023/01/28 10:46:05;;;;;;;0.90;0.80;;;3.00;99.90;;;;;;5012222;28;20203;-64
2023/01/28 10:48:37;;;;;;;0.80;0.55;;;3.00;99.90;;;;;;5011262;28;20299;-64
2023/01/28 10:51:05;;;;;;;1.42;0.82;;;2.90;99.90;;;;;;5011309;28;20293;-64
2023/01/28 10:53:36;;;;;;;0.80;0.80;;;3.00;99.90;;;;;;5011979;28;20199;-64
2023/01/28 10:56:07;;;;;;;0.60;0.50;;;2.90;99.90;;;;;;5012030;28;20193;-63
2023/01/28 10:58:47;;;;;;;0.88;0.50;;;2.90;99.90;;;;;;5012167;28;20308;-62
2023/01/28 11:01:15;;;;;;;0.75;0.70;;;2.90;99.90;;;;;;5011283;28;20206;-64
2023/01/28 11:03:54;;;;;;;0.80;0.60;;;2.90;99.90;;;;;;5012174;28;20233;-64
2023/01/28 11:06:27;;;;;;;0.60;0.52;;;2.80;99.90;;;;;;5010742;28;20281;-63
2023/01/28 11:08:57;;;;;;;0.60;0.50;;;2.80;99.90;;;;;;5011553;28;20217;-63
2023/01/28 11:11:29;;;;;;;0.57;0.45;;;2.90;99.90;;;;;;5011306;28;20278;-64
2023/01/28 11:13:57;;;;;;;0.60;0.50;;;2.90;99.90;;;;;;5011838;28;20586;-64
2023/01/28 11:16:26;;;;;;;0.70;0.50;;;2.90;99.90;;;;;;5011907;28;20253;-63
2023/01/28 11:18:59;;;;;;;0.80;0.68;;;2.90;99.90;;;;;;5011696;28;20218;-64
2023/01/28 11:21:29;;;;;;;0.60;0.50;;;2.90;99.90;;;;;;5010165;28;20202;-63
2023/01/28 11:24:01;;;;;;;0.60;0.50;;;2.90;99.90;;;;;;5011819;28;20306;-63
2023/01/28 11:26:32;;;;;;;0.63;0.60;;;3.00;99.90;;;;;;5011810;28;20678;-63
2023/01/28 11:29:00;;;;;;;0.77;0.55;;;3.00;99.90;;;;;;5011881;28;20651;-63
2023/01/28 11:31:28;;;;;;;0.80;0.70;;;3.00;99.90;;;;;;5010986;28;20711;-63
2023/01/28 11:33:59;;;;;;;0.80;0.65;;;3.00;99.90;;;;;;5011205;28;20193;-63
2023/01/28 11:36:28;;;;;;;0.60;0.50;;;3.00;99.90;;;;;;5008747;28;20289;-63
2023/01/28 11:39:00;;;;;;;0.93;0.50;;;3.00;99.90;;;;;;5006428;28;20229;-63
2023/01/28 11:41:31;;;;;;;0.80;0.50;;;3.00;99.90;;;;;;5010151;28;20215;-63
2023/01/28 11:44:05;;;;;;;0.60;0.60;;;2.90;99.90;;;;;;5010823;28;20694;-63
2023/01/28 11:47:08;;;;;;;0.60;0.50;;;2.90;99.90;;;;;;5011513;28;20198;-63
2023/01/28 11:49:47;;;;;;;0.70;0.50;;;2.90;99.90;;;;;;5010645;28;20323;-63
2023/01/28 11:52:22;;;;;;;1.08;0.60;;;2.90;99.90;;;;;;5010149;28;20225;-63
2023/01/28 11:54:59;;;;;;;0.77;0.60;;;2.80;99.90;;;;;;4996908;28;20282;-64
2023/01/28 11:57:36;;;;;;;0.80;0.60;;;2.90;99.90;;;;;;4991720;28;20197;-64
2023/01/28 12:00:22;;;;;;;0.73;0.52;;;2.90;99.90;;;;;;4990691;28;20557;-64
2023/01/28 12:02:53;;;;;;;0.95;0.85;;;2.80;99.90;;;;;;4991338;28;20285;-64
2023/01/28 12:05:36;;;;;;;0.70;0.50;;;2.90;99.90;;;;;;5006147;28;20572;-64
2023/01/28 12:08:09;;;;;;;0.63;0.50;;;2.90;99.90;;;;;;5010350;28;20234;-63
2023/01/28 12:10:48;;;;;;;0.60;0.50;;;2.90;99.90;;;;;;5010533;28;20202;-63
2023/01/28 12:13:29;;;;;;;0.70;0.50;;;2.90;99.90;;;;;;5011138;28;20276;-64
2023/01/28 12:16:13;;;;;;;0.60;0.60;;;2.80;99.90;;;;;;5011265;28;20203;-63
2023/01/28 12:19:03;;;;;;;0.70;0.60;;;2.80;99.90;;;;;;5011136;28;20225;-63
2023/01/28 12:21:45;;;;;;;0.88;0.65;;;2.70;99.90;;;;;;4997989;28;20244;-63
2023/01/28 12:24:23;;;;;;;0.60;0.50;;;2.60;99.90;;;;;;5011147;28;20316;-63
2023/01/28 12:27:00;;;;;;;0.60;0.52;;;2.60;99.90;;;;;;5011130;28;20222;-63
2023/01/28 12:29:35;;;;;;;0.63;0.55;;;2.60;99.90;;;;;;4994169;28;20318;-63
2023/01/28 12:32:30;;;;;;;0.60;0.50;;;2.60;99.90;;;;;;4991424;28;20202;-63
2023/01/28 12:35:43;;;;;;;0.60;0.50;;;2.60;99.90;;;;;;5002706;28;20309;-63
2023/01/28 12:38:15;;;;;;;0.80;0.68;;;2.60;99.90;;;;;;5007096;28;20236;-64
2023/01/28 12:40:57;;;;;;;0.50;0.50;;;2.60;99.90;;;;;;5010248;28;20198;-63
2023/01/28 12:43:42;;;;;;;0.60;0.50;;;2.60;99.90;;;;;;5010999;28;20586;-63
2023/01/28 12:46:18;;;;;;;0.70;0.60;;;2.60;99.90;;;;;;5010535;28;20265;-64
2023/01/28 12:48:51;;;;;;;1.00;0.63;;;2.60;99.90;;;;;;5010768;28;20317;-64
2023/01/28 12:51:23;;;;;;;0.90;0.45;;;2.60;99.90;;;;;;5009851;28;20277;-63
2023/01/28 12:53:57;;;;;;;0.60;0.60;;;2.60;99.90;;;;;;5010164;28;20285;-63
2023/01/28 12:56:29;;;;;;;0.60;0.50;;;2.60;99.90;;;;;;5010975;28;20194;-63
2023/01/28 12:59:03;;;;;;;0.60;0.40;;;2.60;99.90;;;;;;5010774;28;20222;-63
2023/01/28 13:01:38;;;;;;;0.60;0.40;;;2.60;99.90;;;;;;5009968;28;20297;-63
2023/01/28 13:04:10;;;;;;;0.68;0.60;;;2.60;99.90;;;;;;5010700;28;20686;-64
2023/01/28 13:06:41;;;;;;;0.60;0.60;;;2.50;99.90;;;;;;5002447;28;20288;-63
2023/01/28 13:09:16;;;;;;;0.73;0.50;;;2.50;99.90;;;;;;5010109;28;20306;-64
2023/01/28 13:11:45;;;;;;;1.35;0.60;;;2.50;99.90;;;;;;5012239;28;20198;-64
2023/01/28 13:14:15;;;;;;;0.60;0.43;;;2.60;99.90;;;;;;5014152;28;20190;-64
2023/01/28 13:16:43;;;;;;;0.85;0.70;;;2.60;99.90;;;;;;5014076;28;20237;-64
2023/01/28 13:19:23;;;;;;;0.60;0.50;;;2.60;99.90;;;;;;5013669;28;20226;-63
2023/01/28 13:21:52;;;;;;;0.60;0.50;;;2.60;99.90;;;;;;5007450;28;20295;-64
2023/01/28 13:24:32;;;;;;;0.70;0.50;;;2.60;99.90;;;;;;5007920;28;20309;-63
2023/01/28 13:27:12;;;;;;;0.60;0.47;;;2.60;99.90;;;;;;5011186;28;20724;-62
2023/01/28 13:29:42;;;;;;;0.88;0.70;;;2.60;99.90;;;;;;5012432;28;20236;-62
2023/01/28 13:32:30;;;;;;;0.60;0.50;;;2.60;99.90;;;;;;5013240;28;20246;-63
2023/01/28 13:35:01;;;;;;;0.60;0.50;;;2.60;99.90;;;;;;5013767;28;20201;-63
2023/01/28 13:37:32;;;;;;;0.82;0.60;;;2.50;99.90;;;;;;5008397;28;20224;-63
2023/01/28 13:40:08;;;;;;;0.70;0.60;;;2.50;99.90;;;;;;4998139;28;20245;-63
2023/01/28 13:42:36;;;;;;;0.60;0.50;;;2.50;99.90;;;;;;5003610;28;20197;-63
2023/01/28 13:45:24;;;;;;;1.02;0.50;;;2.60;99.90;;;;;;5015232;28;20213;-63